Time;durP1;ratioP1;P1;durP2;ratioP2;P2;SDS_P1;SDS_P2;PMS_P1;PMS_P2;Temp;Humidity;BMP_temperature;BMP_pressure;BME280_temperature;BME280_humidity;BME280_pressure;Samples;Min_cycle;Max_cycle;Signal;HPM_P1;HPM_P2
2022/08/02 00:01:10;;;;;;;4.53;3.47;;;;;;;21.48;72.80;99047.22;1693864;83;21128;-81
2022/08/02 00:03:36;;;;;;;3.65;3.17;;;;;;;21.47;72.90;99048.72;1708028;83;21099;-80
2022/08/02 00:06:03;;;;;;;3.50;3.20;;;;;;;21.45;72.82;99040.78;1707510;83;21063;-79
2022/08/02 00:08:29;;;;;;;6.53;3.47;;;;;;;21.45;73.26;99040.78;1693412;83;21052;-78
2022/08/02 00:10:56;;;;;;;6.20;3.50;;;;;;;21.43;73.46;99044.06;1684384;84;21060;-79
2022/08/02 00:13:23;;;;;;;6.22;3.90;;;;;;;21.40;73.52;99043.02;1684038;85;21148;-80
2022/08/02 00:15:49;;;;;;;5.60;3.92;;;;;;;21.40;73.45;99034.13;1684152;85;21060;-80
2022/08/02 00:18:16;;;;;;;7.03;4.25;;;;;;;21.39;73.55;99033.28;1709485;83;21083;-81
2022/08/02 00:20:42;;;;;;;4.65;4.03;;;;;;;21.37;73.93;99027.22;1708128;83;21086;-82
2022/08/02 00:23:09;;;;;;;8.75;4.17;;;;;;;21.32;73.84;99026.28;1696910;83;21532;-79
2022/08/02 00:25:35;;;;;;;7.58;4.60;;;;;;;21.30;74.07;99028.72;1691466;84;21131;-80
2022/08/02 00:28:02;;;;;;;6.90;4.28;;;;;;;21.29;74.03;99028.38;1691502;84;21041;-79
2022/08/02 00:30:28;;;;;;;8.60;4.47;;;;;;;21.28;73.73;99028.01;1691376;84;21452;-80
2022/08/02 00:32:55;;;;;;;4.17;3.87;;;;;;;21.27;73.91;99030.34;1691199;84;21140;-80
2022/08/02 00:35:21;;;;;;;4.45;4.05;;;;;;;21.27;73.84;99032.52;1691359;84;21666;-80
2022/08/02 00:37:48;;;;;;;5.60;4.22;;;;;;;21.27;73.71;99026.34;1691502;84;21557;-80
2022/08/02 00:40:14;;;;;;;8.73;4.80;;;;;;;21.27;73.83;99034.36;1691794;84;21034;-80
2022/08/02 00:42:42;;;;;;;4.92;4.35;;;;;;;21.28;74.06;99030.69;1691646;84;21092;-80
2022/08/02 00:45:09;;;;;;;7.35;4.78;;;;;;;21.28;74.27;99033.36;1687311;83;21082;-82
2022/08/02 00:47:36;;;;;;;7.40;4.83;;;;;;;21.27;74.43;99029.84;1686380;84;21093;-80
2022/08/02 00:50:03;;;;;;;7.05;4.62;;;;;;;21.25;74.91;99030.95;1686305;85;21153;-82
2022/08/02 00:52:30;;;;;;;8.83;4.87;;;;;;;21.23;74.70;99038.27;1685787;84;21143;-81
2022/08/02 00:54:56;;;;;;;5.70;4.60;;;;;;;21.24;75.20;99035.95;1685667;84;20996;-80
2022/08/02 00:57:23;;;;;;;5.65;4.80;;;;;;;21.22;75.38;99038.77;1685917;84;21545;-80
2022/08/02 00:59:51;;;;;;;7.85;4.65;;;;;;;21.22;75.50;99036.59;1686227;84;21062;-80
2022/08/02 01:02:18;;;;;;;9.25;5.12;;;;;;;21.21;75.66;99037.56;1686507;85;21692;-81
2022/08/02 01:04:44;;;;;;;5.17;4.47;;;;;;;21.21;75.83;99042.91;1686745;84;21040;-82
2022/08/02 01:07:13;;;;;;;5.70;3.87;;;;;;;21.20;75.73;99035.84;1685852;84;21078;-81
2022/08/02 01:09:43;;;;;;;6.60;4.70;;;;;;;21.23;75.40;99038.27;1686140;84;21059;-80
2022/08/02 01:12:11;;;;;;;5.90;4.87;;;;;;;21.22;75.41;99033.41;1685993;85;21134;-81
2022/08/02 01:14:43;;;;;;;8.35;5.10;;;;;;;21.23;75.78;99035.59;1686049;85;21185;-80
2022/08/02 01:17:44;;;;;;;5.87;4.30;;;;;;;21.22;75.86;99034.75;1686338;83;21550;-79
2022/08/02 01:20:40;;;;;;;6.05;4.47;;;;;;;21.23;75.81;99031.58;1686469;83;21070;-80
2022/08/02 01:23:55;;;;;;;10.58;5.10;;;;;;;21.23;75.65;99033.78;1678731;84;21133;-81
2022/08/02 01:26:49;;;;;;;6.45;4.80;;;;;;;21.21;76.09;99029.03;1686159;84;21066;-81
2022/08/02 01:29:33;;;;;;;7.30;5.55;;;;;;;21.15;76.30;99027.75;1686113;84;21152;-81
2022/08/02 01:32:15;;;;;;;5.12;4.65;;;;;;;21.09;76.81;99025.59;1685943;84;21500;-81
2022/08/02 01:35:02;;;;;;;7.45;4.80;;;;;;;21.05;77.03;99023.34;1686724;83;21126;-80
2022/08/02 01:37:41;;;;;;;8.88;4.92;;;;;;;21.03;76.53;99029.28;1685490;85;21066;-80
2022/08/02 01:40:11;;;;;;;7.05;5.30;;;;;;;21.03;76.81;99034.16;1686189;84;21067;-81
2022/08/02 01:42:43;;;;;;;6.30;4.65;;;;;;;21.03;77.08;99030.62;1669496;84;21561;-82
2022/08/02 01:45:11;;;;;;;8.90;4.72;;;;;;;20.97;77.38;99025.32;1704046;83;21059;-81
2022/08/02 01:47:39;;;;;;;6.37;4.78;;;;;;;20.95;77.51;99025.95;1716177;83;21143;-80
2022/08/02 01:50:06;;;;;;;5.53;4.75;;;;;;;20.95;77.36;99024.61;1716520;83;21076;-81
2022/08/02 01:52:36;;;;;;;7.67;4.92;;;;;;;20.95;77.45;99019.26;1716676;83;21130;-80
2022/08/02 01:55:12;;;;;;;9.18;5.00;;;;;;;20.96;77.58;99020.94;1718092;83;21113;-79
2022/08/02 01:57:48;;;;;;;7.58;5.35;;;;;;;20.94;77.51;99022.90;1723580;83;21064;-80
2022/08/02 02:00:15;;;;;;;8.28;5.37;;;;;;;20.92;77.69;99028.38;1729086;83;21060;-81
2022/08/02 02:02:43;;;;;;;6.45;4.50;;;;;;;20.90;77.80;99018.81;1729095;83;21039;-80
2022/08/02 02:05:17;;;;;;;11.48;4.80;;;;;;;20.87;77.82;99015.89;1728973;83;21001;-79
2022/08/02 02:07:44;;;;;;;6.75;5.20;;;;;;;20.87;77.54;99016.39;1729246;82;21126;-80
2022/08/02 02:10:14;;;;;;;12.50;5.28;;;;;;;20.88;77.80;99011.38;1729267;83;21497;-81
2022/08/02 02:12:42;;;;;;;6.17;5.17;;;;;;;20.88;77.95;99013.59;1729135;82;21507;-81
2022/08/02 02:15:10;;;;;;;8.13;5.25;;;;;;;20.86;78.04;99007.50;1726788;82;22289;-81
2022/08/02 02:17:36;;;;;;;6.50;5.70;;;;;;;20.85;77.97;99007.66;1731156;82;21083;-80
2022/08/02 02:20:05;;;;;;;7.20;6.00;;;;;;;20.84;78.03;99008.63;1730825;82;21208;-80
2022/08/02 02:22:32;;;;;;;8.88;5.30;;;;;;;20.84;77.87;99000.61;1730724;82;21484;-81
2022/08/02 02:24:58;;;;;;;9.95;5.40;;;;;;;20.86;77.57;99002.16;1730451;82;21107;-80
2022/08/02 02:27:25;;;;;;;9.68;5.67;;;;;;;20.88;77.38;98992.66;1730948;82;21009;-81
2022/08/02 02:29:52;;;;;;;10.90;6.20;;;;;;;20.90;77.70;99001.43;1705010;82;21072;-81
2022/08/02 02:32:18;;;;;;;9.35;6.42;;;;;;;20.87;77.96;98998.52;1730582;82;21545;-81
2022/08/02 02:34:45;;;;;;;11.75;5.72;;;;;;;20.83;77.96;98994.89;1730898;82;21044;-79
2022/08/02 02:37:21;;;;;;;6.67;5.20;;;;;;;20.82;78.15;98997.22;1730650;82;21589;-80
2022/08/02 02:39:50;;;;;;;5.75;5.22;;;;;;;20.80;77.92;98992.50;1730936;82;21067;-81
2022/08/02 02:42:18;;;;;;;9.38;5.70;;;;;;;20.80;78.26;98992.50;1730370;82;21067;-80
2022/08/02 02:44:46;;;;;;;9.58;6.15;;;;;;;20.80;78.27;98999.19;1734439;82;21090;-80
2022/08/02 02:47:14;;;;;;;13.15;5.45;;;;;;;20.81;78.11;98998.19;1742673;81;21444;-79
2022/08/02 02:49:42;;;;;;;9.95;5.55;;;;;;;20.82;78.53;98994.55;1742850;81;21511;-80
2022/08/02 02:52:08;;;;;;;5.95;5.25;;;;;;;20.82;78.71;98992.71;1742887;81;21075;-81
2022/08/02 02:54:36;;;;;;;7.33;5.72;;;;;;;20.84;79.14;98996.09;1742810;81;21051;-79
2022/08/02 02:57:04;;;;;;;8.03;5.58;;;;;;;20.85;78.61;98998.30;1743009;82;21622;-80
2022/08/02 02:59:33;;;;;;;8.93;5.22;;;;;;;20.86;78.84;98998.64;1713861;82;21012;-81
2022/08/02 03:02:00;;;;;;;10.35;5.12;;;;;;;20.89;78.87;98996.55;1742662;81;21492;-80
2022/08/02 03:04:28;;;;;;;14.10;5.42;;;;;;;20.92;79.21;98991.44;1743038;81;20996;-82
2022/08/02 03:06:54;;;;;;;7.25;5.70;;;;;;;20.92;79.44;98990.94;1742735;81;21146;-81
2022/08/02 03:09:21;;;;;;;12.03;5.97;;;;;;;20.88;79.68;99001.56;1742184;82;21207;-80
2022/08/02 03:11:48;;;;;;;7.05;5.20;;;;;;;20.83;79.84;99001.57;1742521;82;21025;-80
2022/08/02 03:14:15;;;;;;;6.72;5.37;;;;;;;20.81;79.55;99006.21;1742387;82;21548;-81
2022/08/02 03:16:51;;;;;;;10.75;5.25;;;;;;;20.83;79.20;99008.25;1742688;82;21427;-82
2022/08/02 03:19:18;;;;;;;8.65;5.60;;;;;;;20.85;79.67;99008.50;1742714;82;22063;-80
2022/08/02 03:21:46;;;;;;;10.38;5.42;;;;;;;20.85;80.06;99003.15;1742641;81;21726;-81
2022/08/02 03:24:12;;;;;;;8.88;5.87;;;;;;;20.87;80.16;99003.02;1742650;81;21060;-78
2022/08/02 03:26:39;;;;;;;9.18;5.75;;;;;;;20.90;80.13;99005.44;1742875;81;22218;-82
2022/08/02 03:29:06;;;;;;;9.65;5.10;;;;;;;20.92;80.53;99006.14;1742720;81;21150;-80
2022/08/02 03:31:32;;;;;;;10.50;5.28;;;;;;;20.93;80.84;99001.14;1743032;81;21619;-80
2022/08/02 03:33:59;;;;;;;6.97;5.00;;;;;;;20.93;80.82;98998.46;1742778;82;21195;-81
2022/08/02 03:36:28;;;;;;;8.08;4.72;;;;;;;20.95;81.09;99000.04;1742944;82;21052;-80
2022/08/02 03:38:55;;;;;;;5.15;4.40;;;;;;;20.96;81.07;98998.20;1742892;81;21578;-80
2022/08/02 03:41:22;;;;;;;10.03;4.72;;;;;;;20.95;81.33;98997.37;1742756;82;21062;-82
2022/08/02 03:43:49;;;;;;;8.60;4.87;;;;;;;20.96;81.66;98994.19;1742529;82;21150;-81
2022/08/02 03:46:18;;;;;;;8.30;4.83;;;;;;;20.96;81.33;98992.39;1736365;81;21094;-82
2022/08/02 03:48:47;;;;;;;9.15;4.37;;;;;;;20.99;81.67;98993.94;1734718;82;21566;-80
2022/08/02 03:51:13;;;;;;;8.30;4.97;;;;;;;20.97;81.29;98992.73;1731896;81;21671;-80
2022/08/02 03:53:39;;;;;;;10.55;4.25;;;;;;;21.00;81.63;98995.64;1724648;83;21574;-81
2022/08/02 03:56:06;;;;;;;7.70;4.03;;;;;;;21.00;81.70;98990.30;1702168;83;21156;-80
2022/08/02 03:58:33;;;;;;;5.65;4.05;;;;;;;21.00;81.79;98982.27;1724695;83;21154;-80
2022/08/02 04:00:59;;;;;;;4.80;4.35;;;;;;;20.99;81.81;98985.91;1724729;83;20996;-77
2022/08/02 04:03:26;;;;;;;8.33;4.30;;;;;;;21.00;82.04;98984.94;1724876;83;21058;-80
2022/08/02 04:05:52;;;;;;;5.00;4.12;;;;;;;20.99;82.22;98987.25;1724527;83;21492;-80
2022/08/02 04:08:19;;;;;;;6.25;4.42;;;;;;;21.02;82.58;99000.86;1725129;83;21040;-81
2022/08/02 04:13:34;;;;;;;9.58;4.85;;;;;;;21.03;82.89;98998.05;1724520;83;21052;-79
2022/08/02 04:16:08;;;;;;;5.62;4.42;;;;;;;21.03;83.55;98995.84;1724676;83;20999;-78
2022/08/02 04:18:39;;;;;;;5.55;4.25;;;;;;;21.01;83.96;98993.30;1724915;82;21573;-80
2022/08/02 04:21:06;;;;;;;6.47;4.20;;;;;;;20.99;83.85;98991.27;1724889;83;21044;-81
2022/08/02 04:23:32;;;;;;;6.83;4.30;;;;;;;20.98;83.70;98992.26;1724526;83;21880;-81
2022/08/02 04:25:59;;;;;;;6.55;4.12;;;;;;;21.00;84.07;98992.97;1718603;82;22088;-80
2022/08/02 04:28:26;;;;;;;5.87;4.08;;;;;;;21.02;84.38;98991.00;1713551;83;21629;-79
2022/08/02 04:30:52;;;;;;;7.12;4.62;;;;;;;21.01;84.80;98994.64;1713322;83;20992;-80
2022/08/02 04:33:19;;;;;;;8.68;4.05;;;;;;;20.99;84.80;99001.95;1713477;83;21104;-80
2022/08/02 04:35:45;;;;;;;6.05;4.90;;;;;;;20.98;85.25;98994.94;1713191;83;21560;-79
2022/08/02 04:38:13;;;;;;;8.00;4.35;;;;;;;20.98;85.18;99001.62;1713415;83;21064;-81
2022/08/02 04:40:39;;;;;;;7.45;4.37;;;;;;;21.01;85.45;99003.16;1713286;83;21119;-80
2022/08/02 04:43:06;;;;;;;4.92;4.15;;;;;;;21.02;85.62;99001.70;1683497;85;21420;-81
2022/08/02 04:45:33;;;;;;;7.37;5.17;;;;;;;21.02;85.70;99003.53;1666961;84;21030;-78
2022/08/02 04:47:59;;;;;;;8.50;4.60;;;;;;;21.01;86.05;99003.16;1654562;86;21073;-79
2022/08/02 04:50:26;;;;;;;6.28;4.03;;;;;;;21.00;86.14;99007.67;1713103;83;21012;-78
2022/08/02 04:52:52;;;;;;;6.40;4.33;;;;;;;21.00;86.05;99017.04;1683602;85;22139;-79
2022/08/02 04:55:19;;;;;;;8.40;4.37;;;;;;;21.01;85.92;99021.39;1684498;85;21153;-80
2022/08/02 04:57:54;;;;;;;7.97;4.42;;;;;;;21.03;85.71;99018.58;1654527;86;21159;-80
2022/08/02 05:00:21;;;;;;;6.05;4.25;;;;;;;21.06;85.85;99026.34;1713255;83;21191;-79
2022/08/02 05:02:48;;;;;;;6.08;3.70;;;;;;;21.08;86.08;99028.39;1713197;83;21115;-81
2022/08/02 05:05:14;;;;;;;5.15;3.42;;;;;;;21.05;85.25;99036.20;1683466;85;21048;-80
2022/08/02 05:07:41;;;;;;;8.13;3.00;;;;;;;20.99;84.85;99035.89;1684142;85;21091;-80
2022/08/02 05:10:08;;;;;;;3.77;2.80;;;;;;;20.94;83.83;99034.94;1654555;86;21124;-79
2022/08/02 05:12:36;;;;;;;5.75;2.60;;;;;;;20.90;82.66;99034.86;1713434;83;21888;-78
2022/08/02 05:15:04;;;;;;;7.92;2.98;;;;;;;20.88;81.57;99042.13;1689482;83;21004;-77
2022/08/02 05:17:30;;;;;;;8.10;3.00;;;;;;;20.86;81.25;99042.27;1713488;83;21585;-80
2022/08/02 05:19:57;;;;;;;5.00;2.90;;;;;;;20.82;80.71;99039.50;1713245;83;21087;-78
2022/08/02 05:22:23;;;;;;;4.05;2.65;;;;;;;20.81;80.80;99035.63;1713405;83;21064;-79
2022/08/02 05:24:50;;;;;;;8.63;3.05;;;;;;;20.78;80.82;99038.92;1713233;83;21135;-78
2022/08/02 05:27:17;;;;;;;10.15;2.90;;;;;;;20.77;80.77;99037.21;1713191;83;20996;-79
2022/08/02 05:29:43;;;;;;;5.60;2.70;;;;;;;20.76;80.48;99039.55;1713565;83;21507;-77
2022/08/02 05:32:10;;;;;;;4.03;3.20;;;;;;;20.71;79.94;99035.08;1713189;83;21108;-78
2022/08/02 05:34:37;;;;;;;5.28;2.75;;;;;;;20.67;79.72;99034.95;1683718;85;21230;-79
2022/08/02 05:37:03;;;;;;;5.67;2.62;;;;;;;20.63;79.94;99038.88;1684149;85;21497;-78
2022/08/02 05:39:30;;;;;;;5.45;2.75;;;;;;;20.63;80.24;99037.55;1654446;86;21108;-77
2022/08/02 05:41:56;;;;;;;9.85;2.70;;;;;;;20.60;80.30;99047.13;1713467;83;21115;-78
2022/08/02 05:44:22;;;;;;;3.05;2.37;;;;;;;20.55;80.21;99047.50;1713014;83;21582;-79
2022/08/02 05:46:49;;;;;;;5.60;2.85;;;;;;;20.53;80.54;99051.29;1713166;83;21024;-79
2022/08/02 05:49:15;;;;;;;6.10;2.62;;;;;;;20.52;80.70;99057.60;1713187;83;21180;-78
2022/08/02 05:52:06;;;;;;;4.37;2.95;;;;;;;20.51;80.81;99062.11;1713422;83;21151;-79
2022/08/02 05:54:40;;;;;;;4.78;2.80;;;;;;;20.49;80.74;99066.70;1713487;83;21625;-79
2022/08/02 05:57:34;;;;;;;6.10;3.05;;;;;;;20.46;81.18;99064.78;1719794;83;21589;-77
2022/08/02 06:00:10;;;;;;;7.72;3.15;;;;;;;20.45;81.24;99071.12;1724245;83;21019;-79
2022/08/02 06:02:51;;;;;;;4.83;2.98;;;;;;;20.45;81.56;99075.97;1724549;83;21219;-78
2022/08/02 06:05:19;;;;;;;7.20;3.10;;;;;;;20.41;81.47;99068.70;1723857;83;21070;-79
2022/08/02 06:07:47;;;;;;;6.62;3.40;;;;;;;20.36;81.76;99072.23;1724671;83;21181;-78
2022/08/02 06:10:16;;;;;;;3.37;3.05;;;;;;;20.35;82.28;99070.53;1724682;83;21091;-78
2022/08/02 06:12:52;;;;;;;10.75;3.08;;;;;;;20.33;82.23;99069.81;1724777;83;20996;-78
2022/08/02 06:15:19;;;;;;;4.97;3.47;;;;;;;20.30;82.73;99077.23;1724420;83;21875;-79
2022/08/02 06:17:46;;;;;;;6.25;3.02;;;;;;;20.26;82.62;99071.30;1724950;83;21664;-78
2022/08/02 06:20:14;;;;;;;6.30;3.25;;;;;;;20.23;82.61;99067.05;1726465;82;21852;-79
2022/08/02 06:22:42;;;;;;;6.65;3.35;;;;;;;20.21;82.68;99068.16;1734832;82;21072;-78
2022/08/02 06:25:11;;;;;;;5.28;3.60;;;;;;;20.16;82.85;99067.69;1734690;82;21028;-77
2022/08/02 06:27:40;;;;;;;5.17;3.25;;;;;;;20.08;82.75;99062.13;1735026;82;21992;-78
2022/08/02 06:30:09;;;;;;;5.90;3.62;;;;;;;20.02;83.18;99062.98;1734534;82;21056;-78
2022/08/02 06:32:36;;;;;;;9.55;3.30;;;;;;;19.98;83.67;99054.84;1734449;82;21128;-78
2022/08/02 06:35:03;;;;;;;7.92;3.90;;;;;;;19.98;83.78;99057.51;1734599;82;21018;-78
2022/08/02 06:37:58;;;;;;;6.90;4.35;;;;;;;19.99;83.85;99053.88;1734778;82;21081;-79
2022/08/02 06:40:31;;;;;;;9.25;3.58;;;;;;;20.01;84.21;99054.59;1735306;82;21119;-79
2022/08/02 06:43:19;;;;;;;8.23;3.80;;;;;;;20.02;83.78;99042.95;1734897;82;21069;-78
2022/08/02 06:45:45;;;;;;;4.80;3.55;;;;;;;20.02;83.46;99045.63;1734958;82;22276;-80
2022/08/02 06:48:12;;;;;;;4.62;4.03;;;;;;;20.00;83.66;99040.87;1734859;82;21124;-79
2022/08/02 06:50:40;;;;;;;8.40;4.55;;;;;;;20.02;84.33;99046.95;1735114;82;21005;-79
2022/08/02 06:53:07;;;;;;;4.97;3.95;;;;;;;20.07;85.12;99056.41;1734892;82;21100;-79
2022/08/02 06:55:34;;;;;;;7.37;3.77;;;;;;;20.07;84.73;99051.06;1735102;82;21108;-81
2022/08/02 06:58:02;;;;;;;6.65;4.10;;;;;;;20.02;84.66;99050.97;1734913;82;21080;-80
2022/08/02 07:00:30;;;;;;;8.23;4.28;;;;;;;20.00;84.99;99046.21;1734930;82;21041;-78
2022/08/02 07:02:56;;;;;;;10.75;4.47;;;;;;;19.99;85.28;99047.20;1735303;82;21065;-80
2022/08/02 07:05:23;;;;;;;11.90;4.25;;;;;;;19.97;85.56;99045.61;1734581;82;21184;-79
2022/08/02 07:07:49;;;;;;;17.45;5.40;;;;;;;19.91;86.02;99044.30;1734862;82;21160;-80
2022/08/02 07:10:16;;;;;;;8.30;4.12;;;;;;;19.90;85.89;99047.94;1734786;82;21077;-79
2022/08/02 07:12:42;;;;;;;9.88;4.30;;;;;;;19.89;85.72;99046.25;1735200;82;21167;-80
2022/08/02 07:15:11;;;;;;;10.35;4.28;;;;;;;19.89;85.65;99047.59;1735049;82;21065;-80
2022/08/02 07:17:37;;;;;;;7.35;4.00;;;;;;;19.89;85.51;99052.92;1735011;82;21264;-79
2022/08/02 07:20:06;;;;;;;8.90;4.35;;;;;;;19.88;85.39;99052.55;1734774;82;21018;-80
2022/08/02 07:22:34;;;;;;;11.90;5.10;;;;;;;19.89;85.47;99048.05;1734615;82;21152;-80
2022/08/02 07:25:00;;;;;;;19.73;6.50;;;;;;;19.91;85.18;99049.64;1735239;82;21104;-79
2022/08/02 07:27:27;;;;;;;11.88;7.60;;;;;;;19.92;84.92;99050.02;1734840;82;21092;-79
2022/08/02 07:29:55;;;;;;;14.45;5.97;;;;;;;19.88;84.76;99058.39;1734654;82;39305;-81
2022/08/02 07:32:24;;;;;;;11.43;5.97;;;;;;;19.88;84.67;99057.89;1734601;82;21060;-79
2022/08/02 07:34:51;;;;;;;12.73;5.45;;;;;;;19.91;84.59;99060.81;1734643;80;21156;-79
2022/08/02 07:37:18;;;;;;;7.00;4.85;;;;;;;19.92;84.49;99066.03;1734561;82;21163;-79
2022/08/02 07:39:44;;;;;;;9.03;4.50;;;;;;;19.94;84.45;99073.43;1734772;82;21687;-78
2022/08/02 07:42:11;;;;;;;4.80;4.03;;;;;;;19.93;84.49;99075.72;1735106;80;21146;-79
2022/08/02 07:44:37;;;;;;;8.13;4.37;;;;;;;19.93;84.69;99077.06;1734748;82;21068;-77
2022/08/02 07:47:04;;;;;;;8.03;4.15;;;;;;;19.94;84.52;99073.43;1733146;82;21419;-77
2022/08/02 07:49:30;;;;;;;10.85;4.25;;;;;;;19.96;84.71;99072.81;1724890;83;21547;-78
2022/08/02 07:51:57;;;;;;;5.72;4.00;;;;;;;19.98;84.53;99078.87;1724968;83;21066;-79
2022/08/02 07:54:24;;;;;;;11.45;3.50;;;;;;;19.97;84.68;99074.52;1725106;83;21154;-78
2022/08/02 07:56:52;;;;;;;5.10;3.45;;;;;;;19.98;84.67;99084.21;1724639;83;21119;-79
2022/08/02 07:59:19;;;;;;;9.48;3.87;;;;;;;19.98;84.19;99076.20;1724346;83;21000;-79
2022/08/02 08:01:48;;;;;;;11.88;3.90;;;;;;;19.97;84.00;99080.33;1724613;83;21095;-78
2022/08/02 08:04:16;;;;;;;11.55;4.67;;;;;;;19.93;84.05;99085.07;1724792;83;21056;-77
2022/08/02 08:06:43;;;;;;;6.35;3.65;;;;;;;19.88;84.35;99075.25;1724775;83;21099;-77
2022/08/02 08:09:11;;;;;;;6.00;3.75;;;;;;;19.87;84.81;99084.25;1724660;83;21048;-78
2022/08/02 08:11:38;;;;;;;6.97;4.33;;;;;;;19.88;84.90;99087.27;1724307;83;21393;-77
2022/08/02 08:14:05;;;;;;;14.45;4.85;;;;;;;19.90;85.16;99085.80;1724181;83;20973;-78
2022/08/02 08:16:32;;;;;;;5.87;4.17;;;;;;;19.86;85.34;99090.55;1724538;83;21083;-78
2022/08/02 08:18:59;;;;;;;7.45;3.98;;;;;;;19.82;85.36;99090.41;1728596;82;21116;-79
2022/08/02 08:21:25;;;;;;;10.60;4.37;;;;;;;19.81;85.42;99085.56;1734453;81;21562;-77
2022/08/02 08:23:52;;;;;;;11.40;5.08;;;;;;;19.89;85.80;99104.99;1735013;81;21969;-78
2022/08/02 08:26:19;;;;;;;8.10;4.42;;;;;;;19.97;86.23;99095.88;1734996;82;21027;-77
2022/08/02 08:28:45;;;;;;;5.75;4.35;;;;;;;20.06;86.52;99106.30;1734710;82;21043;-78
2022/08/02 08:31:12;;;;;;;6.45;4.00;;;;;;;20.16;86.79;99111.77;1735216;82;21063;-78
2022/08/02 08:33:38;;;;;;;7.28;4.25;;;;;;;20.23;86.86;99103.60;1734734;82;21052;-77
2022/08/02 08:36:05;;;;;;;12.70;4.15;;;;;;;20.29;86.63;99103.11;1734815;81;21661;-79
2022/08/02 08:38:32;;;;;;;9.50;4.40;;;;;;;20.35;86.59;99102.59;1734711;82;21116;-78
2022/08/02 08:40:59;;;;;;;12.05;4.35;;;;;;;20.39;86.44;99096.03;1735132;81;21004;-79
2022/08/02 08:43:25;;;;;;;6.25;4.95;;;;;;;20.46;86.45;99099.05;1734712;82;21120;-78
2022/08/02 08:45:52;;;;;;;9.28;4.53;;;;;;;20.49;86.59;99096.59;1734993;82;21056;-78
2022/08/02 08:48:19;;;;;;;9.10;4.87;;;;;;;20.45;86.67;99100.02;1734925;82;21071;-79
2022/08/02 08:51:01;;;;;;;8.05;4.62;;;;;;;20.47;86.72;99102.06;1710688;82;21094;-81
2022/08/02 08:53:28;;;;;;;8.30;5.20;;;;;;;20.49;86.48;99100.61;1734915;82;21123;-80
2022/08/02 08:55:56;;;;;;;7.22;5.40;;;;;;;20.46;86.61;99100.86;1734828;82;22087;-80
2022/08/02 08:58:24;;;;;;;13.05;5.35;;;;;;;20.38;86.73;99097.00;1734681;82;21127;-80
2022/08/02 09:00:50;;;;;;;8.48;5.25;;;;;;;20.31;87.12;99098.48;1734725;82;21012;-79
2022/08/02 09:03:16;;;;;;;9.75;5.25;;;;;;;20.23;87.58;99097.77;1734882;82;21503;-78
2022/08/02 09:05:45;;;;;;;8.83;4.62;;;;;;;20.13;88.11;99106.16;1734838;82;21511;-78
2022/08/02 09:08:12;;;;;;;6.03;4.62;;;;;;;20.10;88.52;99100.23;1735020;82;21136;-80
2022/08/02 09:10:42;;;;;;;7.47;4.15;;;;;;;20.03;88.22;99101.20;1734871;82;22068;-79
2022/08/02 09:13:21;;;;;;;6.33;4.28;;;;;;;19.98;88.18;99109.58;1734909;82;21060;-78
2022/08/02 09:16:02;;;;;;;9.03;4.12;;;;;;;20.00;88.18;99114.30;1735090;82;21174;-79
2022/08/02 09:18:37;;;;;;;7.92;4.45;;;;;;;20.02;87.88;99107.51;1734653;82;21110;-79
2022/08/02 09:21:05;;;;;;;;;;;;;;;20.01;87.78;99108.00;1737697;81;21493;-79
2022/08/02 09:23:36;;;;;;;8.78;4.22;;;;;;;20.00;86.99;99126.81;1734846;81;20171;-80
2022/08/02 09:26:08;;;;;;;8.45;4.25;;;;;;;19.97;87.22;99125.26;1735039;82;21013;-77
2022/08/02 09:28:36;;;;;;;7.22;4.12;;;;;;;19.94;87.28;99118.82;1734860;82;21055;-79
2022/08/02 09:31:09;;;;;;;5.33;3.90;;;;;;;19.96;87.32;99118.20;1735061;82;22066;-78
2022/08/02 09:33:39;;;;;;;5.92;4.40;;;;;;;19.97;87.29;99119.05;1734255;82;21121;-77
2022/08/02 09:36:08;;;;;;;8.23;4.08;;;;;;;19.96;87.28;99121.38;1734912;82;21096;-78
2022/08/02 09:38:35;;;;;;;12.35;4.22;;;;;;;19.92;87.28;99119.44;1734536;82;21102;-78
2022/08/02 09:41:03;;;;;;;9.65;3.55;;;;;;;19.94;87.52;99118.82;1734702;82;21080;-77
2022/08/02 09:43:40;;;;;;;9.75;4.28;;;;;;;19.95;87.26;99129.84;1734673;82;21012;-77
2022/08/02 09:46:19;;;;;;;6.70;3.90;;;;;;;19.97;87.48;99125.26;1733294;82;21372;-79
2022/08/02 09:48:53;;;;;;;10.00;4.10;;;;;;;19.95;87.50;99127.17;1747912;81;21055;-78
2022/08/02 09:51:23;;;;;;;11.10;4.30;;;;;;;19.89;87.41;99130.36;1748201;81;21150;-78
2022/08/02 09:53:55;;;;;;;9.48;4.70;;;;;;;19.84;88.04;99125.37;1747940;81;21051;-77
2022/08/02 09:56:23;;;;;;;7.00;3.98;;;;;;;19.82;88.63;99126.45;1751077;81;21130;-78
2022/08/02 09:58:52;;;;;;;6.92;4.47;;;;;;;19.79;88.65;99121.38;1753907;81;21085;-79
2022/08/02 10:01:20;;;;;;;11.55;5.00;;;;;;;19.74;88.82;99118.20;1753609;81;21102;-78
2022/08/02 10:03:58;;;;;;;8.83;5.72;;;;;;;19.70;88.99;99115.39;1754098;81;21114;-79
2022/08/02 10:06:26;;;;;;;9.30;5.80;;;;;;;19.68;89.89;99114.17;1737966;82;21063;-81
2022/08/02 10:08:52;;;;;;;5.37;4.65;;;;;;;19.65;89.91;99116.61;1754137;81;21071;-80
2022/08/02 10:11:23;;;;;;;8.40;5.40;;;;;;;19.67;90.34;99121.34;1754115;81;21125;-80
2022/08/02 10:13:50;;;;;;;7.70;4.92;;;;;;;19.64;90.40;99121.58;1754074;81;21043;-78
2022/08/02 10:16:20;;;;;;;5.62;4.95;;;;;;;19.63;90.95;99122.53;1753820;81;21138;-80
2022/08/02 10:18:46;;;;;;;6.97;4.83;;;;;;;19.65;91.23;99128.62;1754067;81;21023;-79
2022/08/02 10:21:17;;;;;;;4.30;3.90;;;;;;;19.65;90.68;99121.08;1752810;81;21116;-79
2022/08/02 10:23:44;;;;;;;9.00;4.40;;;;;;;19.66;90.92;99116.12;1748435;81;21789;-78
2022/08/02 10:26:16;;;;;;;5.05;4.40;;;;;;;19.74;90.71;99119.03;1748335;81;20999;-81
2022/08/02 10:28:45;;;;;;;7.08;3.85;;;;;;;19.75;90.17;99119.91;1748632;81;21114;-80
2022/08/02 10:31:11;;;;;;;9.10;4.62;;;;;;;19.75;90.34;99114.57;1748376;82;21598;-80
2022/08/02 10:33:38;;;;;;;8.08;4.30;;;;;;;19.80;90.13;99120.39;1748681;82;21074;-79
2022/08/02 10:36:05;;;;;;;6.40;4.53;;;;;;;19.82;90.36;99118.44;1747940;81;21106;-80
2022/08/02 10:38:32;;;;;;;4.33;3.90;;;;;;;19.85;90.29;99113.73;1748164;82;21511;-78
2022/08/02 10:40:59;;;;;;;4.15;3.75;;;;;;;19.86;89.62;99119.91;1748392;82;21066;-80
2022/08/02 10:43:39;;;;;;;4.60;3.40;;;;;;;19.88;89.71;99115.30;1748768;82;21128;-80
2022/08/02 10:46:26;;;;;;;4.50;3.75;;;;;;;19.96;89.68;99114.20;1748221;82;21008;-80
2022/08/02 10:49:14;;;;;;;3.95;3.70;;;;;;;20.04;88.86;99120.27;1732726;82;21123;-79
2022/08/02 10:51:57;;;;;;;9.15;4.22;;;;;;;20.01;88.71;99126.70;1737057;82;21103;-80
2022/08/02 10:54:38;;;;;;;4.08;3.25;;;;;;;20.09;88.89;99122.09;1737433;82;21075;-79
2022/08/02 10:57:21;;;;;;;7.22;3.52;;;;;;;20.14;88.29;99123.03;1737286;81;21087;-79
2022/08/02 11:00:01;;;;;;;5.67;3.65;;;;;;;20.11;87.89;99118.80;1737316;82;21052;-79
2022/08/02 11:02:41;;;;;;;11.78;4.10;;;;;;;20.06;87.69;99120.16;1737457;81;22138;-80
2022/08/02 11:05:17;;;;;;;8.53;4.37;;;;;;;20.06;88.34;99125.50;1737058;82;21070;-79
2022/08/02 11:07:48;;;;;;;5.17;3.45;;;;;;;20.06;87.90;99124.16;1737280;81;21055;-79
2022/08/02 11:10:35;;;;;;;6.42;3.60;;;;;;;20.07;88.11;99125.34;1737596;82;21657;-79
2022/08/02 11:13:13;;;;;;;7.75;3.67;;;;;;;20.10;88.28;99130.44;1736719;82;21110;-79
2022/08/02 11:16:00;;;;;;;5.17;3.35;;;;;;;20.15;87.79;99129.58;1737439;82;21126;-79
2022/08/02 11:18:55;;;;;;;12.25;3.72;;;;;;;20.20;87.72;99133.23;1736960;82;21554;-79
2022/08/02 11:21:27;;;;;;;6.75;3.83;;;;;;;20.29;87.62;99131.63;1737441;82;21118;-80
2022/08/02 11:23:54;;;;;;;7.00;3.83;;;;;;;20.30;86.92;99131.51;1737270;82;21074;-78
2022/08/02 11:26:35;;;;;;;5.33;3.52;;;;;;;20.30;86.45;99134.67;1737460;82;21004;-79
2022/08/02 11:29:03;;;;;;;7.50;3.60;;;;;;;20.28;86.09;99133.46;1737338;81;21766;-80
2022/08/02 11:31:40;;;;;;;5.85;3.37;;;;;;;20.31;86.17;99123.87;1737303;82;20992;-79
2022/08/02 11:34:07;;;;;;;5.67;3.08;;;;;;;20.34;86.10;99127.62;1737346;82;21134;-80
2022/08/02 11:36:46;;;;;;;9.15;3.67;;;;;;;20.37;86.05;99131.36;1737536;82;21067;-80
2022/08/02 11:39:14;;;;;;;6.65;3.67;;;;;;;20.40;86.28;99132.45;1737110;82;21527;-80
2022/08/02 11:41:42;;;;;;;4.33;3.50;;;;;;;20.45;85.71;99124.56;1737391;82;21118;-79
2022/08/02 11:44:08;;;;;;;7.03;3.20;;;;;;;20.45;85.79;99131.25;1737252;82;21040;-78
2022/08/02 11:46:36;;;;;;;10.80;3.67;;;;;;;20.44;85.92;99134.38;1737010;82;21071;-79